Antas, Brazil
Current Conditions -  °F | °C
As of 5:00 AM on Thursday 23 Oct 2014 (Local Time) from SBAR Reporting Station
Scattered Clouds Scattered Clouds  
Wind Chill: 77°   Ceiling: Unl
Heat Index: 79°   Visibility: 6mi
Dew Point: 68°   Wind: 10mph
Humidity: 74%   Direction: 160°SSE
Pressure: 30"   Gusts: NA
Location:  10.4°S, 38.33°W
Report Text: SBAR 230800Z 16009KT 9999 SCT017 25/20 Q1016
Loading
Personal Weather Stations






























Interactive Weather Map
Tropical Storm Tracking
New forecast layout! Learn more

10-Day Weather Forecast

Advertisements
Track Severe Weather on mobile